Blodgett, OR (97326)

8:37 PM PDT on September 27, 2016 (GMT -0700)
APRSWXNET | | Change Station

Elev 1209 ft 44.61 °N, 123.65 °W | Updated 23 days ago

Clear
Clear
52 °F
Feels Like 52 °F
N
4
Wind Variable Wind from WNW
Gusts mph

Today
High -- | Low -- °F
--% Chance of Precip.
Yesterday
High -- | Low -- °F
Precip. -- in
Pressure 30.09 in
Visibility 5.0 miles
Clouds Clear
Dew Point 50 °F
Humidity 94%
Rainfall in
Snow Depth Not available.
7:08 AM 7:01 PM
Waning Crescent, 8% visible
METAR KONP 280315Z AUTO 35006KT 5SM BR CLR 12/11 A3009 RMK AO2
Pressure 30.09 in
Visibility 5.0 miles
Clouds Clear
Dew Point 50 °F
Humidity 94%
Rainfall in
Snow Depth Not available.
7:08 AM 7:01 PM
Waning Crescent, 8% visible
METAR KONP 280315Z AUTO 35006KT 5SM BR CLR 12/11 A3009 RMK AO2

10-Day Weather Forecast

Almanac

Astronomy

Sep. 27, 2016 Rise Set
Actual Time
Civil Twilight
Nautical Twilight
Astronomical Twilight
Moon
Length of Visible Light
Length of Day
Tomorrow will be .
, % of the Moon is Illuminated

Today's Extremes

State Highs State Lows

Community

WunderPhotos

Upload Photos

1,942,203 photos uploaded!

WunderBlog® & News

Nearby

Air Quality

  Air Quality AQ Index Pollutant
Not available.

Snow Depth

Station Depth Elevation

Earthquake Activity

City Distance Mag. Time & Date
Minimum magnitude displayed is 2.5.

Coastal Water Temperatures

Place Temperature

Stations

Nearby Weather Stations

Station Location Temp. Windchill Dew Point Humidity Wind Precip. Elev Updated Type
                   

Watches & Warnings

There are currently no watches in effect.